This is the latest recevied weather packets stored in our database for station/object SP9INZ-13. If no packets are shown the sender has not sent any weather packets the latest 10 day(s).
| Time | Temp. | Humidity | Pressure | Rain* | Wind** | Luminosity | Snow |
|---|---|---|---|---|---|---|---|
| 1777854581 | 16.67° C | 43% | 1020.9 hPa | - | - | - | - |
| 1777853623 | 16.11° C | 44% | 1021 hPa | - | - | - | - |
| 1777852665 | 16.67° C | 44% | 1020.9 hPa | - | - | - | - |
| 1777851866 | 16.67° C | 44% | 1021 hPa | - | - | - | - |
| 1777851706 | 16.67° C | 44% | 1021 hPa | - | - | - | - |
| 1777850750 | 16.67° C | 44% | 1021.1 hPa | - | - | - | - |
| 1777849791 | 17.22° C | 42% | 1021.1 hPa | - | - | - | - |
| 1777848833 | 17.22° C | 42% | 1021.1 hPa | - | - | - | - |
| 1777847875 | 17.78° C | 41% | 1021 hPa | - | - | - | - |
| 1777846917 | 17.78° C | 40% | 1021 hPa | - | - | - | - |
| 1777845958 | 17.78° C | 40% | 1021.3 hPa | - | - | - | - |
| 1777845002 | 18.33° C | 39% | 1021.2 hPa | - | - | - | - |
| 1777844043 | 18.89° C | 38% | 1020.9 hPa | - | - | - | - |
| 1777843086 | 19.44° C | 37% | 1020.7 hPa | - | - | - | - |
| 1777842128 | 19.44° C | 37% | 1020.6 hPa | - | - | - | - |
| 1777841329 | 19.44° C | 37% | 1020.5 hPa | - | - | - | - |
| 1777841170 | 19.44° C | 37% | 1020.5 hPa | - | - | - | - |
| 1777840213 | 20° C | 38% | 1020.2 hPa | - | - | - | - |
| 1777839254 | 20.56° C | 38% | 1019.8 hPa | - | - | - | - |
| 1777838295 | 21.11° C | 38% | 1019.6 hPa | - | - | - | - |
| 1777837338 | 21.11° C | 37% | 1019.5 hPa | - | - | - | - |
| 1777836380 | 21.67° C | 36% | 1019.4 hPa | - | - | - | - |
| 1777835875 | 21.67° C | 36% | 1019.3 hPa | - | - | - | - |
| 1777835422 | 21.67° C | 36% | 1019.3 hPa | - | - | - | - |
| 1777834464 | 22.22° C | 35% | 1019 hPa | - | - | - | - |
* Rain since midnight (hover to see other rain measurements)
** Current wind speed in m/s (hover to see current wind gust speed)